TOM910 EGPH-EGBB
Flight info
| Callsign | TOM910 |
|---|---|
| Flight time | 0h 45m |
| Altitude | 27000 |
| Route | GOSAM P600 FENIK L612 NAVSO DCT AKOMU DCT VAMEB UL612 CROFT |
| Aircraft | B738/M-SDE2E3FGHIRWXY/LB1 |
Departure
| Time | 2026-04-25 08:06 |
|---|---|
| Airport | Edinburgh Airport (EGPH) |
Arrival
| Time | 2026-04-25 08:51 |
|---|---|
| Airport | Birmingham Airport (EGBB) |
| Time | Latitude | Longitude | Altitude | Speed | Heading |
|---|---|---|---|---|---|
| 2026-04-25 07:40 | 55.94885 | -3.36553 | 115 ft | 0 kts | 148° |
| 2026-04-25 07:57 | 55.94902 | -3.36570 | 90 ft | 4 kts | 148° |
| 2026-04-25 07:57 | 55.94924 | -3.36591 | 113 ft | 4 kts | 175° |
| 2026-04-25 07:57 | 55.94948 | -3.36582 | 112 ft | 4 kts | 221° |
| 2026-04-25 07:58 | 55.94958 | -3.36561 | 111 ft | 0 kts | 238° |
| 2026-04-25 08:01 | 55.94950 | -3.36587 | 114 ft | 8 kts | 239° |
| 2026-04-25 08:01 | 55.94912 | -3.36697 | 115 ft | 11 kts | 238° |
| 2026-04-25 08:02 | 55.94914 | -3.36820 | 112 ft | 11 kts | 310° |
| 2026-04-25 08:02 | 55.94907 | -3.36944 | 114 ft | 11 kts | 238° |
| 2026-04-25 08:02 | 55.94871 | -3.37058 | 114 ft | 10 kts | 240° |
| 2026-04-25 08:02 | 55.94832 | -3.37178 | 112 ft | 12 kts | 239° |
| 2026-04-25 08:03 | 55.94782 | -3.37322 | 115 ft | 15 kts | 238° |
| 2026-04-25 08:03 | 55.94726 | -3.37489 | 111 ft | 16 kts | 239° |
| 2026-04-25 08:03 | 55.94664 | -3.37672 | 113 ft | 18 kts | 239° |
| 2026-04-25 08:03 | 55.94595 | -3.37876 | 115 ft | 20 kts | 239° |
| 2026-04-25 08:04 | 55.94521 | -3.38092 | 113 ft | 20 kts | 238° |
| 2026-04-25 08:04 | 55.94449 | -3.38304 | 114 ft | 20 kts | 239° |
| 2026-04-25 08:04 | 55.94379 | -3.38510 | 114 ft | 19 kts | 239° |
| 2026-04-25 08:04 | 55.94313 | -3.38707 | 113 ft | 15 kts | 238° |
| 2026-04-25 08:05 | 55.94296 | -3.38873 | 112 ft | 15 kts | 312° |
| 2026-04-25 08:05 | 55.94383 | -3.38964 | 111 ft | 15 kts | 340° |
| 2026-04-25 08:05 | 55.94458 | -3.38846 | 113 ft | 26 kts | 58° |
| 2026-04-25 08:05 | 55.94713 | -3.38091 | 112 ft | 114 kts | 59° |
| 2026-04-25 08:06 | 55.95232 | -3.36490 | 322 ft | 169 kts | 62° |
| 2026-04-25 08:06 | 55.95845 | -3.34742 | 1553 ft | 165 kts | 58° |
| 2026-04-25 08:06 | 55.96620 | -3.33100 | 2409 ft | 185 kts | 44° |
| 2026-04-25 08:06 | 55.97660 | -3.31444 | 2731 ft | 218 kts | 41° |
| 2026-04-25 08:07 | 55.98867 | -3.29562 | 3159 ft | 237 kts | 40° |
| 2026-04-25 08:07 | 56.00296 | -3.28099 | 3829 ft | 240 kts | 8° |
| 2026-04-25 08:07 | 56.01935 | -3.28489 | 4458 ft | 248 kts | 330° |
| 2026-04-25 08:07 | 56.03125 | -3.30705 | 5224 ft | 253 kts | 293° |
| 2026-04-25 08:08 | 56.03381 | -3.33814 | 5749 ft | 256 kts | 261° |
| 2026-04-25 08:08 | 56.02899 | -3.36908 | 6001 ft | 263 kts | 255° |
| 2026-04-25 08:08 | 56.02378 | -3.40080 | 6002 ft | 267 kts | 256° |
| 2026-04-25 08:08 | 56.01887 | -3.43241 | 5989 ft | 266 kts | 256° |
| 2026-04-25 08:09 | 56.01406 | -3.46421 | 5995 ft | 265 kts | 257° |
| 2026-04-25 08:09 | 56.00944 | -3.49605 | 6006 ft | 264 kts | 257° |
| 2026-04-25 08:09 | 56.00487 | -3.52794 | 6004 ft | 264 kts | 257° |
| 2026-04-25 08:09 | 56.00029 | -3.56010 | 6368 ft | 270 kts | 257° |
| 2026-04-25 08:10 | 55.99572 | -3.59214 | 7384 ft | 268 kts | 257° |
| 2026-04-25 08:10 | 55.99105 | -3.62476 | 8173 ft | 275 kts | 257° |
| 2026-04-25 08:10 | 55.98630 | -3.65795 | 9117 ft | 275 kts | 258° |
| 2026-04-25 08:10 | 55.98152 | -3.69125 | 10010 ft | 280 kts | 257° |
| 2026-04-25 08:11 | 55.97656 | -3.72577 | 10489 ft | 298 kts | 258° |
| 2026-04-25 08:11 | 55.97118 | -3.76334 | 10649 ft | 325 kts | 257° |
| 2026-04-25 08:11 | 55.96533 | -3.80388 | 10984 ft | 344 kts | 257° |
| 2026-04-25 08:11 | 55.95925 | -3.84582 | 11655 ft | 351 kts | 257° |
| 2026-04-25 08:12 | 55.95309 | -3.88821 | 12450 ft | 355 kts | 257° |
| 2026-04-25 08:12 | 55.94691 | -3.93060 | 13216 ft | 358 kts | 257° |
| 2026-04-25 08:12 | 55.94036 | -3.97385 | 13951 ft | 365 kts | 253° |
| 2026-04-25 08:12 | 55.92907 | -4.01505 | 14524 ft | 375 kts | 236° |
| 2026-04-25 08:13 | 55.91213 | -4.05026 | 15320 ft | 376 kts | 224° |
| 2026-04-25 08:13 | 55.89135 | -4.07904 | 16066 ft | 380 kts | 216° |
| 2026-04-25 08:13 | 55.86924 | -4.10529 | 16762 ft | 384 kts | 214° |
| 2026-04-25 08:14 | 55.82516 | -4.15727 | 18100 ft | 390 kts | 215° |
| 2026-04-25 08:14 | 55.80350 | -4.18335 | 18763 ft | 393 kts | 215° |
| 2026-04-25 08:14 | 55.78076 | -4.21092 | 19318 ft | 396 kts | 216° |
| 2026-04-25 08:14 | 55.75829 | -4.23854 | 19892 ft | 399 kts | 216° |
| 2026-04-25 08:15 | 55.73352 | -4.26122 | 20369 ft | 406 kts | 196° |
| 2026-04-25 08:15 | 55.70536 | -4.26630 | 20972 ft | 409 kts | 176° |
| 2026-04-25 08:15 | 55.67767 | -4.25596 | 21669 ft | 410 kts | 159° |
| 2026-04-25 08:15 | 55.65210 | -4.23310 | 22254 ft | 412 kts | 152° |
| 2026-04-25 08:16 | 55.62696 | -4.20781 | 22698 ft | 418 kts | 150° |
| 2026-04-25 08:16 | 55.60166 | -4.18203 | 23159 ft | 422 kts | 151° |
| 2026-04-25 08:16 | 55.57607 | -4.15630 | 23696 ft | 424 kts | 152° |
| 2026-04-25 08:16 | 55.55022 | -4.13075 | 24132 ft | 427 kts | 152° |
| 2026-04-25 08:17 | 55.52414 | -4.10528 | 24554 ft | 429 kts | 152° |
| 2026-04-25 08:17 | 55.49784 | -4.07974 | 24966 ft | 432 kts | 152° |
| 2026-04-25 08:17 | 55.47144 | -4.05412 | 25367 ft | 434 kts | 152° |
| 2026-04-25 08:17 | 55.44493 | -4.02839 | 25785 ft | 436 kts | 152° |
| 2026-04-25 08:18 | 55.41840 | -4.00263 | 26299 ft | 435 kts | 152° |
| 2026-04-25 08:18 | 55.39215 | -3.97716 | 26796 ft | 434 kts | 152° |
| 2026-04-25 08:18 | 55.36566 | -3.95151 | 27206 ft | 435 kts | 152° |
| 2026-04-25 08:18 | 55.33902 | -3.92575 | 27174 ft | 438 kts | 152° |
| 2026-04-25 08:19 | 55.31229 | -3.89994 | 27190 ft | 434 kts | 152° |
| 2026-04-25 08:19 | 55.28591 | -3.87450 | 27194 ft | 432 kts | 152° |
| 2026-04-25 08:19 | 55.25977 | -3.84933 | 27192 ft | 434 kts | 152° |
| 2026-04-25 08:19 | 55.23314 | -3.82375 | 27202 ft | 439 kts | 152° |
| 2026-04-25 08:20 | 55.20603 | -3.79815 | 27197 ft | 441 kts | 154° |
| 2026-04-25 08:20 | 55.17872 | -3.77406 | 27197 ft | 437 kts | 155° |
| 2026-04-25 08:20 | 55.15152 | -3.75091 | 27191 ft | 434 kts | 155° |
| 2026-04-25 08:20 | 55.12452 | -3.72820 | 27202 ft | 435 kts | 155° |
| 2026-04-25 08:21 | 55.09715 | -3.70517 | 27202 ft | 436 kts | 155° |
| 2026-04-25 08:21 | 55.06986 | -3.68209 | 27192 ft | 437 kts | 155° |
| 2026-04-25 08:21 | 55.04257 | -3.65891 | 27216 ft | 437 kts | 155° |
| 2026-04-25 08:21 | 55.01509 | -3.63551 | 27197 ft | 437 kts | 155° |
| 2026-04-25 08:22 | 54.98798 | -3.61241 | 27202 ft | 437 kts | 155° |
| 2026-04-25 08:22 | 54.96064 | -3.58911 | 27212 ft | 437 kts | 155° |
| 2026-04-25 08:22 | 54.93335 | -3.56587 | 27210 ft | 435 kts | 155° |
| 2026-04-25 08:22 | 54.90614 | -3.54274 | 27198 ft | 434 kts | 155° |
| 2026-04-25 08:23 | 54.88817 | -3.52748 | 27196 ft | 433 kts | 155° |
| 2026-04-25 08:23 | 54.86112 | -3.50455 | 27198 ft | 432 kts | 155° |
| 2026-04-25 08:23 | 54.82542 | -3.47435 | 27200 ft | 430 kts | 155° |
| 2026-04-25 08:23 | 54.80721 | -3.45897 | 27199 ft | 430 kts | 155° |
| 2026-04-25 08:24 | 54.78060 | -3.43651 | 27205 ft | 429 kts | 155° |
| 2026-04-25 08:24 | 54.75371 | -3.41386 | 27208 ft | 429 kts | 155° |
| 2026-04-25 08:24 | 54.72676 | -3.39119 | 27199 ft | 430 kts | 155° |
| 2026-04-25 08:24 | 54.69982 | -3.36858 | 27198 ft | 430 kts | 155° |
| 2026-04-25 08:25 | 54.67286 | -3.34596 | 27213 ft | 430 kts | 155° |
| 2026-04-25 08:25 | 54.64584 | -3.32333 | 27211 ft | 431 kts | 155° |
| 2026-04-25 08:25 | 54.61921 | -3.30106 | 27197 ft | 431 kts | 155° |
| 2026-04-25 08:25 | 54.59212 | -3.27845 | 27195 ft | 431 kts | 155° |
| 2026-04-25 08:26 | 54.56507 | -3.25589 | 27202 ft | 431 kts | 155° |
| 2026-04-25 08:26 | 54.53810 | -3.23344 | 27207 ft | 431 kts | 155° |
| 2026-04-25 08:26 | 54.51099 | -3.21090 | 27182 ft | 432 kts | 156° |
| 2026-04-25 08:26 | 54.48389 | -3.18840 | 27208 ft | 434 kts | 156° |
| 2026-04-25 08:27 | 54.45650 | -3.16570 | 27193 ft | 437 kts | 156° |
| 2026-04-25 08:27 | 54.42922 | -3.14312 | 27197 ft | 434 kts | 156° |
| 2026-04-25 08:27 | 54.40206 | -3.12068 | 27207 ft | 432 kts | 156° |
| 2026-04-25 08:27 | 54.37530 | -3.09859 | 27205 ft | 432 kts | 156° |
| 2026-04-25 08:28 | 54.34828 | -3.07633 | 27206 ft | 431 kts | 156° |
| 2026-04-25 08:28 | 54.32116 | -3.05401 | 27206 ft | 431 kts | 156° |
| 2026-04-25 08:28 | 54.29409 | -3.03177 | 27208 ft | 431 kts | 156° |
| 2026-04-25 08:28 | 54.26694 | -3.00950 | 27210 ft | 432 kts | 156° |
| 2026-04-25 08:29 | 54.23984 | -2.98728 | 27211 ft | 432 kts | 156° |
| 2026-04-25 08:29 | 54.21259 | -2.96498 | 27208 ft | 433 kts | 156° |
| 2026-04-25 08:29 | 54.18580 | -2.94309 | 27211 ft | 432 kts | 156° |
| 2026-04-25 08:29 | 54.15858 | -2.92111 | 27214 ft | 432 kts | 158° |
| 2026-04-25 08:30 | 54.13098 | -2.90061 | 27205 ft | 431 kts | 159° |
| 2026-04-25 08:30 | 54.10333 | -2.88098 | 27220 ft | 430 kts | 159° |
| 2026-04-25 08:30 | 54.07593 | -2.86161 | 27217 ft | 430 kts | 159° |
| 2026-04-25 08:30 | 54.04835 | -2.84187 | 27218 ft | 430 kts | 159° |
| 2026-04-25 08:31 | 54.02076 | -2.82194 | 27213 ft | 429 kts | 159° |
| 2026-04-25 08:31 | 53.99328 | -2.80204 | 27213 ft | 429 kts | 159° |
| 2026-04-25 08:31 | 53.96581 | -2.78226 | 27218 ft | 429 kts | 159° |
| 2026-04-25 08:31 | 53.93827 | -2.76253 | 27213 ft | 429 kts | 159° |
| 2026-04-25 08:32 | 53.91080 | -2.74287 | 27216 ft | 428 kts | 159° |
| 2026-04-25 08:32 | 53.88339 | -2.72313 | 27218 ft | 428 kts | 159° |
| 2026-04-25 08:32 | 53.85595 | -2.70325 | 27215 ft | 428 kts | 159° |
| 2026-04-25 08:32 | 53.82858 | -2.68341 | 27215 ft | 428 kts | 159° |
| 2026-04-25 08:33 | 53.80152 | -2.66385 | 27223 ft | 428 kts | 159° |
| 2026-04-25 08:33 | 53.77397 | -2.64399 | 27227 ft | 427 kts | 159° |
| 2026-04-25 08:33 | 53.74650 | -2.62428 | 27223 ft | 423 kts | 159° |
| 2026-04-25 08:33 | 53.72016 | -2.60543 | 27089 ft | 412 kts | 159° |
| 2026-04-25 08:34 | 53.69390 | -2.58665 | 26731 ft | 404 kts | 159° |
| 2026-04-25 08:34 | 53.66803 | -2.56820 | 26249 ft | 401 kts | 159° |
| 2026-04-25 08:34 | 53.64243 | -2.54999 | 25837 ft | 397 kts | 159° |
| 2026-04-25 08:34 | 53.61720 | -2.53101 | 25376 ft | 396 kts | 154° |
| 2026-04-25 08:35 | 53.59361 | -2.50831 | 24945 ft | 394 kts | 150° |
| 2026-04-25 08:35 | 53.57040 | -2.48364 | 24495 ft | 392 kts | 149° |
| 2026-04-25 08:35 | 53.54751 | -2.45890 | 24054 ft | 390 kts | 149° |
| 2026-04-25 08:35 | 53.52463 | -2.43445 | 23569 ft | 388 kts | 150° |
| 2026-04-25 08:36 | 53.50202 | -2.41072 | 23060 ft | 386 kts | 150° |
| 2026-04-25 08:36 | 53.47902 | -2.38692 | 22403 ft | 389 kts | 150° |
| 2026-04-25 08:36 | 53.45586 | -2.36314 | 21789 ft | 390 kts | 150° |
| 2026-04-25 08:36 | 53.43266 | -2.33942 | 21153 ft | 390 kts | 150° |
| 2026-04-25 08:37 | 53.40953 | -2.31581 | 20549 ft | 389 kts | 150° |
| 2026-04-25 08:37 | 53.38641 | -2.29224 | 19969 ft | 388 kts | 150° |
| 2026-04-25 08:37 | 53.36330 | -2.26870 | 19392 ft | 388 kts | 150° |
| 2026-04-25 08:37 | 53.34009 | -2.24563 | 18819 ft | 386 kts | 151° |
| 2026-04-25 08:38 | 53.31694 | -2.22404 | 18231 ft | 385 kts | 152° |
| 2026-04-25 08:38 | 53.29345 | -2.20265 | 17584 ft | 383 kts | 152° |
| 2026-04-25 08:38 | 53.27009 | -2.18143 | 16957 ft | 382 kts | 152° |
| 2026-04-25 08:38 | 53.24675 | -2.16016 | 16347 ft | 380 kts | 152° |
| 2026-04-25 08:39 | 53.22350 | -2.13888 | 15738 ft | 379 kts | 152° |
| 2026-04-25 08:39 | 53.20072 | -2.11798 | 15163 ft | 378 kts | 152° |
| 2026-04-25 08:39 | 53.17766 | -2.09679 | 14575 ft | 377 kts | 152° |
| 2026-04-25 08:39 | 53.15476 | -2.07575 | 14003 ft | 375 kts | 152° |
| 2026-04-25 08:40 | 53.13183 | -2.05471 | 13384 ft | 374 kts | 152° |
| 2026-04-25 08:40 | 53.10907 | -2.03384 | 12753 ft | 373 kts | 152° |
| 2026-04-25 08:40 | 53.08634 | -2.01303 | 12145 ft | 372 kts | 152° |
| 2026-04-25 08:40 | 53.06397 | -1.99261 | 11555 ft | 371 kts | 152° |
| 2026-04-25 08:41 | 53.04079 | -1.97389 | 10915 ft | 369 kts | 163° |
| 2026-04-25 08:41 | 53.01554 | -1.96810 | 10377 ft | 365 kts | 178° |
| 2026-04-25 08:41 | 52.99027 | -1.96559 | 9765 ft | 363 kts | 177° |
| 2026-04-25 08:41 | 52.96517 | -1.96271 | 9358 ft | 356 kts | 176° |
| 2026-04-25 08:42 | 52.94106 | -1.95972 | 9256 ft | 340 kts | 176° |
| 2026-04-25 08:42 | 52.91794 | -1.95676 | 9223 ft | 324 kts | 176° |
| 2026-04-25 08:42 | 52.89596 | -1.95391 | 9214 ft | 308 kts | 176° |
| 2026-04-25 08:42 | 52.87501 | -1.95117 | 9204 ft | 294 kts | 176° |
| 2026-04-25 08:43 | 52.85537 | -1.94860 | 8943 ft | 283 kts | 176° |
| 2026-04-25 08:43 | 52.83570 | -1.94605 | 8412 ft | 283 kts | 176° |
| 2026-04-25 08:43 | 52.81610 | -1.94351 | 7934 ft | 281 kts | 176° |
| 2026-04-25 08:43 | 52.79667 | -1.94098 | 7476 ft | 279 kts | 176° |
| 2026-04-25 08:44 | 52.77737 | -1.93847 | 7001 ft | 277 kts | 176° |
| 2026-04-25 08:44 | 52.75817 | -1.93598 | 6536 ft | 275 kts | 176° |
| 2026-04-25 08:44 | 52.73917 | -1.93351 | 6053 ft | 273 kts | 176° |
| 2026-04-25 08:44 | 52.72090 | -1.93114 | 5934 ft | 257 kts | 176° |
| 2026-04-25 08:45 | 52.70361 | -1.92889 | 5825 ft | 241 kts | 176° |
| 2026-04-25 08:45 | 52.68721 | -1.92677 | 5432 ft | 234 kts | 176° |
| 2026-04-25 08:45 | 52.67100 | -1.92467 | 4874 ft | 234 kts | 176° |
| 2026-04-25 08:45 | 52.65482 | -1.92259 | 4317 ft | 232 kts | 175° |
| 2026-04-25 08:46 | 52.63899 | -1.92054 | 4070 ft | 218 kts | 175° |
| 2026-04-25 08:46 | 52.62492 | -1.91872 | 4085 ft | 192 kts | 175° |
| 2026-04-25 08:46 | 52.61214 | -1.91706 | 3953 ft | 176 kts | 175° |
| 2026-04-25 08:46 | 52.60048 | -1.91228 | 3488 ft | 179 kts | 146° |
| 2026-04-25 08:47 | 52.59144 | -1.89942 | 3322 ft | 170 kts | 146° |
| 2026-04-25 08:47 | 52.58118 | -1.89001 | 3177 ft | 170 kts | 148° |
| 2026-04-25 08:47 | 52.57134 | -1.87919 | 2968 ft | 168 kts | 146° |
| 2026-04-25 08:47 | 52.56171 | -1.86830 | 2742 ft | 167 kts | 146° |
| 2026-04-25 08:48 | 52.55210 | -1.85754 | 2514 ft | 166 kts | 146° |
| 2026-04-25 08:48 | 52.54265 | -1.84702 | 2298 ft | 157 kts | 147° |
| 2026-04-25 08:48 | 52.53407 | -1.83747 | 2108 ft | 149 kts | 147° |
| 2026-04-25 08:48 | 52.52556 | -1.82800 | 1896 ft | 145 kts | 147° |
| 2026-04-25 08:49 | 52.51712 | -1.81858 | 1692 ft | 147 kts | 147° |
| 2026-04-25 08:49 | 52.50862 | -1.80914 | 1481 ft | 147 kts | 146° |
| 2026-04-25 08:49 | 52.50032 | -1.79989 | 1280 ft | 143 kts | 146° |
| 2026-04-25 08:49 | 52.49207 | -1.79070 | 1072 ft | 143 kts | 146° |
| 2026-04-25 08:50 | 52.48387 | -1.78156 | 876 ft | 142 kts | 146° |
| 2026-04-25 08:50 | 52.47580 | -1.77250 | 681 ft | 143 kts | 146° |
| 2026-04-25 08:50 | 52.46745 | -1.76312 | 468 ft | 147 kts | 146° |
| 2026-04-25 08:50 | 52.45908 | -1.75382 | 324 ft | 134 kts | 146° |
| 2026-04-25 08:51 | 52.45305 | -1.74715 | 324 ft | 66 kts | 146° |
| 2026-04-25 08:51 | 52.45073 | -1.74458 | 329 ft | 30 kts | 146° |
| 2026-04-25 08:51 | 52.44947 | -1.74289 | 326 ft | 18 kts | 97° |
| 2026-04-25 08:51 | 52.44971 | -1.74098 | 326 ft | 17 kts | 72° |
| 2026-04-25 08:52 | 52.45003 | -1.73917 | 329 ft | 16 kts | 66° |
| 2026-04-25 08:52 | 52.45065 | -1.73769 | 328 ft | 16 kts | 48° |
| 2026-04-25 08:52 | 52.45136 | -1.73640 | 330 ft | 15 kts | 56° |
| 2026-04-25 08:52 | 52.45190 | -1.73610 | 329 ft | 7 kts | 328° |
| 2026-04-25 08:53 | 52.45217 | -1.73638 | 328 ft | 2 kts | 327° |
| 2026-04-25 08:53 | 52.45218 | -1.73638 | 328 ft | 0 kts | 327° |